Time;durP1;ratioP1;P1;durP2;ratioP2;P2;SDS_P1;SDS_P2;PMS_P1;PMS_P2;Temp;Humidity;BMP_temperature;BMP_pressure;BME280_temperature;BME280_humidity;BME280_pressure;Samples;Min_cycle;Max_cycle;Signal;HPM_P1;HPM_P2
2022/10/03 00:00:13;;;;;;;6.15;2.45;;;;;;;17.60;40.29;99607.06;3140608;28;20436;-62
2022/10/03 00:02:11;;;;;;;7.72;2.97;;;;;;;17.63;40.31;99606.81;3142402;28;20037;-62
2022/10/03 00:03:57;;;;;;;6.53;2.70;;;;;;;17.62;40.16;99607.75;3138351;28;20129;-63
2022/10/03 00:05:44;;;;;;;6.25;2.33;;;;;;;17.59;40.39;99604.53;3143814;28;20044;-63
2022/10/03 00:07:33;;;;;;;4.38;1.90;;;;;;;17.60;40.29;99606.19;3143693;28;20131;-63
2022/10/03 00:09:32;;;;;;;3.53;1.75;;;;;;;17.60;40.19;99603.56;3143678;28;20044;-63
2022/10/03 00:11:15;;;;;;;5.38;1.70;;;;;;;17.58;40.37;99594.97;3138321;28;20067;-62
2022/10/03 00:13:02;;;;;;;5.00;1.98;;;;;;;17.59;40.16;99602.72;3143869;28;20515;-62
2022/10/03 00:14:44;;;;;;;5.15;1.90;;;;;;;17.61;40.12;99590.28;3143984;28;20110;-63
2022/10/03 00:16:23;;;;;;;3.67;1.25;;;;;;;17.62;40.11;99584.06;3143627;28;20044;-63
2022/10/03 00:18:12;;;;;;;2.88;1.70;;;;;;;17.61;39.99;99581.56;3143938;28;20072;-62
2022/10/03 00:19:55;;;;;;;5.55;1.73;;;;;;;17.61;40.11;99584.19;3143611;28;20060;-62
2022/10/03 00:21:41;;;;;;;3.72;1.80;;;;;;;17.60;40.25;99587.75;3143624;28;20053;-62
2022/10/03 00:23:22;;;;;;;6.50;2.28;;;;;;;17.62;40.24;99583.22;3140506;28;20113;-63
2022/10/03 00:25:07;;;;;;;4.85;1.83;;;;;;;17.62;40.14;99593.75;3139980;28;20041;-62
2022/10/03 00:26:47;;;;;;;5.10;2.08;;;;;;;17.62;39.97;99594.59;3140653;28;20071;-62
2022/10/03 00:28:40;;;;;;;4.45;1.38;;;;;;;17.61;40.06;99586.81;3143831;28;20578;-62
2022/10/03 00:30:18;;;;;;;6.35;1.50;;;;;;;17.62;40.07;99585.84;3143307;28;20063;-63
2022/10/03 00:31:57;;;;;;;3.63;1.45;;;;;;;17.60;40.13;99575.47;3138805;28;20061;-64
2022/10/03 00:33:39;;;;;;;2.92;1.63;;;;;;;17.62;40.02;99575.31;3144038;28;20160;-63
2022/10/03 00:35:24;;;;;;;6.15;1.85;;;;;;;17.61;40.04;99577.13;3143674;28;20053;-64
2022/10/03 00:37:14;;;;;;;3.67;1.38;;;;;;;17.63;39.95;99577.00;3141674;28;20049;-63
2022/10/03 00:39:17;;;;;;;4.13;1.80;;;;;;;17.63;40.10;99579.63;3143460;28;20450;-63
2022/10/03 00:41:15;;;;;;;6.78;2.03;;;;;;;17.62;40.18;99572.69;3143581;28;20106;-63
2022/10/03 00:43:27;;;;;;;3.65;1.52;;;;;;;17.62;40.27;99572.69;3137822;28;20052;-64
2022/10/03 00:45:55;;;;;;;7.50;2.00;;;;;;;17.61;40.28;99573.66;3140086;28;20234;-64
2022/10/03 00:48:00;;;;;;;4.25;1.70;;;;;;;17.58;40.36;99572.09;3129638;28;20506;-63
2022/10/03 00:49:58;;;;;;;4.03;1.70;;;;;;;17.56;40.38;99570.53;3128174;28;20486;-62
2022/10/03 00:51:45;;;;;;;3.22;1.52;;;;;;;17.55;40.56;99563.59;3129109;28;20056;-63
2022/10/03 00:53:36;;;;;;;4.22;1.92;;;;;;;17.50;40.46;99563.94;3142613;28;20668;-63
2022/10/03 00:55:24;;;;;;;2.92;1.33;;;;;;;17.48;40.75;99569.34;3143205;28;20666;-62
2022/10/03 00:57:16;;;;;;;3.95;1.63;;;;;;;17.51;40.55;99555.13;3141184;28;20583;-62
2022/10/03 00:58:58;;;;;;;3.30;1.42;;;;;;;17.48;40.78;99553.56;3143890;28;20059;-63
2022/10/03 01:00:32;;;;;;;6.07;1.65;;;;;;;17.48;40.69;99553.56;3145638;28;20109;-62
2022/10/03 01:02:28;;;;;;;2.42;1.00;;;;;;;17.39;40.75;99546.38;3145762;28;20098;-62
2022/10/03 01:04:14;;;;;;;2.30;1.10;;;;;;;17.41;40.89;99551.50;3145788;28;20052;-63
2022/10/03 01:06:06;;;;;;;3.17;1.08;;;;;;;17.40;40.92;99544.56;3144942;28;20052;-63
2022/10/03 01:08:07;;;;;;;1.35;0.88;;;;;;;17.36;40.87;99540.50;3143935;28;20052;-63
2022/10/03 01:09:53;;;;;;;2.55;0.95;;;;;;;17.36;40.88;99545.75;3143405;28;20453;-63
2022/10/03 01:11:40;;;;;;;1.90;1.05;;;;;;;17.34;40.93;99532.72;3144774;28;20127;-62
2022/10/03 01:13:28;;;;;;;2.88;1.10;;;;;;;17.35;41.22;99529.13;3145550;28;20055;-62
2022/10/03 01:15:14;;;;;;;1.92;1.02;;;;;;;17.34;41.28;99535.34;3146287;28;20155;-63
2022/10/03 01:17:02;;;;;;;4.70;1.10;;;;;;;17.32;41.18;99532.00;3145773;28;20501;-63
2022/10/03 01:18:51;;;;;;;1.60;0.80;;;;;;;17.28;41.52;99526.13;3145638;28;20363;-63
2022/10/03 01:20:32;;;;;;;2.70;1.10;;;;;;;17.28;41.38;99530.56;3145193;28;20445;-63
2022/10/03 01:22:20;;;;;;;2.35;1.17;;;;;;;17.21;41.60;99522.28;3145686;28;20040;-62
2022/10/03 01:24:37;;;;;;;3.47;1.02;;;;;;;17.16;41.60;99527.09;3139118;28;20056;-63
2022/10/03 01:26:22;;;;;;;4.35;1.40;;;;;;;17.17;41.49;99523.50;3128700;28;20044;-63
2022/10/03 01:31:56;;;;;;;2.47;1.40;;;;;;;17.14;42.06;99529.00;3143730;28;20056;-63
2022/10/03 01:33:34;;;;;;;2.60;0.90;;;;;;;17.13;42.12;99523.88;3145518;28;20593;-62
2022/10/03 01:35:19;;;;;;;2.65;1.00;;;;;;;17.14;42.22;99528.16;3144901;28;20049;-63
2022/10/03 01:37:05;;;;;;;3.05;1.17;;;;;;;17.13;42.10;99526.50;3144310;28;20139;-63
2022/10/03 01:38:43;;;;;;;4.05;1.20;;;;;;;17.13;42.25;99521.22;3145041;28;20207;-63
2022/10/03 01:40:26;;;;;;;3.00;1.10;;;;;;;17.11;42.38;99520.50;3140135;28;20074;-63
2022/10/03 01:42:00;;;;;;;2.60;0.85;;;;;;;17.08;42.33;99518.09;3139633;28;20122;-63
2022/10/03 01:43:37;;;;;;;2.92;1.10;;;;;;;17.10;42.43;99524.09;3145592;28;20135;-63
2022/10/03 01:45:23;;;;;;;1.77;0.98;;;;;;;17.10;42.16;99513.56;3144242;28;20105;-63
2022/10/03 01:47:08;;;;;;;3.35;1.20;;;;;;;17.10;42.27;99516.22;3139724;28;20108;-63
2022/10/03 01:48:49;;;;;;;3.20;1.05;;;;;;;17.10;42.32;99516.22;3140399;28;20875;-63
2022/10/03 01:50:29;;;;;;;3.58;1.15;;;;;;;17.09;42.28;99514.50;3145450;28;20510;-63
2022/10/03 01:52:08;;;;;;;2.08;0.98;;;;;;;17.09;42.23;99517.16;3145496;28;20056;-63
2022/10/03 01:53:53;;;;;;;1.65;0.95;;;;;;;17.10;42.47;99516.22;3145031;28;20041;-63
2022/10/03 01:55:40;;;;;;;2.20;0.88;;;;;;;17.08;42.53;99516.31;3145133;28;20049;-63
2022/10/03 01:57:18;;;;;;;4.03;1.20;;;;;;;17.08;42.37;99523.38;3145258;28;20047;-63
2022/10/03 01:58:58;;;;;;;1.70;0.80;;;;;;;17.06;42.59;99518.22;3145288;28;20127;-63
2022/10/03 02:00:42;;;;;;;3.08;1.17;;;;;;;17.02;42.67;99522.88;3145072;28;20041;-63
2022/10/03 02:02:22;;;;;;;2.45;0.93;;;;;;;17.00;42.94;99511.63;3145344;28;20052;-63
2022/10/03 02:04:03;;;;;;;2.67;1.27;;;;;;;16.98;42.75;99520.63;3145551;28;20052;-63
2022/10/03 02:05:40;;;;;;;3.55;1.10;;;;;;;16.95;43.03;99526.94;3145424;28;20291;-63
2022/10/03 02:07:24;;;;;;;4.25;1.00;;;;;;;16.92;43.20;99516.66;3145305;28;20082;-63
2022/10/03 02:09:03;;;;;;;4.07;1.00;;;;;;;16.91;43.11;99520.22;3145154;28;20041;-63
2022/10/03 02:10:41;;;;;;;2.40;0.93;;;;;;;16.90;43.13;99521.19;3144862;28;20059;-63
2022/10/03 02:12:22;;;;;;;2.65;1.10;;;;;;;16.89;43.28;99527.41;3145141;28;20072;-63
2022/10/03 02:14:01;;;;;;;1.85;1.17;;;;;;;16.87;43.18;99521.41;3139013;28;20453;-64
2022/10/03 02:15:44;;;;;;;6.00;1.10;;;;;;;16.73;43.57;99508.44;3138929;28;20495;-63
2022/10/03 02:17:29;;;;;;;3.88;1.08;;;;;;;16.75;43.67;99517.06;3139016;28;20060;-63
2022/10/03 02:19:11;;;;;;;3.33;1.13;;;;;;;16.71;43.65;99515.59;3140159;28;20505;-63
2022/10/03 02:20:47;;;;;;;2.15;1.02;;;;;;;16.68;43.96;99519.31;3144640;28;20052;-63
2022/10/03 02:22:31;;;;;;;6.47;1.52;;;;;;;16.65;43.99;99522.16;3144972;28;20048;-63
2022/10/03 02:24:22;;;;;;;6.43;1.23;;;;;;;16.67;44.14;99520.25;3145165;28;20048;-63
2022/10/03 02:26:14;;;;;;;3.40;1.30;;;;;;;16.66;44.00;99526.47;3143280;28;20056;-63
2022/10/03 02:28:15;;;;;;;6.15;2.55;;;;;;;16.62;44.11;99522.38;3140098;28;20053;-63
2022/10/03 02:30:04;;;;;;;3.97;1.33;;;;;;;16.60;44.23;99514.63;3139239;28;20053;-63
2022/10/03 02:32:10;;;;;;;5.55;1.33;;;;;;;16.56;44.22;99528.94;3144829;28;20506;-62
2022/10/03 02:34:15;;;;;;;5.30;1.75;;;;;;;16.56;44.10;99528.09;3143650;28;20048;-62
2022/10/03 02:36:13;;;;;;;4.22;2.03;;;;;;;16.52;44.27;99524.03;3139519;28;20616;-62
2022/10/03 02:38:00;;;;;;;4.60;2.03;;;;;;;16.52;44.28;99521.41;3138876;28;20413;-63
2022/10/03 02:40:22;;;;;;;4.70;1.90;;;;;;;16.50;44.54;99523.28;3138774;28;20055;-62
2022/10/03 02:42:29;;;;;;;6.28;2.67;;;;;;;16.47;44.48;99513.84;3144836;28;20048;-62
2022/10/03 02:44:54;;;;;;;3.15;1.85;;;;;;;16.45;44.40;99512.31;3134923;28;20049;-63
2022/10/03 02:47:19;;;;;;;5.13;2.27;;;;;;;16.42;44.56;99489.72;3144865;28;20052;-63
2022/10/03 02:49:34;;;;;;;7.60;2.30;;;;;;;16.43;44.69;99501.88;3128953;28;20056;-63
2022/10/03 02:51:40;;;;;;;5.25;2.20;;;;;;;16.43;44.54;99507.13;3137614;28;20052;-63
2022/10/03 02:53:45;;;;;;;5.20;2.35;;;;;;;16.42;44.59;99508.09;3144659;28;20539;-62
2022/10/03 02:55:53;;;;;;;4.57;2.45;;;;;;;16.41;44.73;99501.16;3144757;28;20068;-63
2022/10/03 02:58:05;;;;;;;6.05;2.50;;;;;;;16.41;44.55;99508.19;3138563;28;20044;-63
2022/10/03 03:00:15;;;;;;;6.43;2.75;;;;;;;16.39;44.93;99500.44;3144502;28;20045;-63
2022/10/03 03:02:13;;;;;;;6.85;2.58;;;;;;;16.38;44.88;99501.38;3140273;28;20049;-63
2022/10/03 03:04:15;;;;;;;7.55;2.75;;;;;;;16.37;44.94;99499.72;3144144;28;20060;-63
2022/10/03 03:06:28;;;;;;;5.18;2.30;;;;;;;16.37;44.54;99495.28;3140056;28;20059;-63
2022/10/03 03:08:32;;;;;;;8.25;2.50;;;;;;;16.36;44.99;99496.25;3120371;28;20059;-63
2022/10/03 03:10:40;;;;;;;5.38;2.30;;;;;;;16.37;44.99;99489.19;3141940;28;20048;-63
2022/10/03 03:12:34;;;;;;;6.50;2.67;;;;;;;16.37;44.86;99491.81;3129601;28;20048;-63
2022/10/03 03:14:31;;;;;;;7.60;2.97;;;;;;;16.36;44.93;99488.38;3140704;28;20565;-63
2022/10/03 03:16:31;;;;;;;6.47;2.55;;;;;;;16.36;44.87;99479.66;3144889;28;20052;-63
2022/10/03 03:18:11;;;;;;;5.35;2.17;;;;;;;16.36;45.02;99474.41;3140842;28;20052;-63
2022/10/03 03:20:16;;;;;;;6.45;2.30;;;;;;;16.36;44.87;99477.84;3144235;28;20054;-63
2022/10/03 03:21:53;;;;;;;5.68;2.28;;;;;;;16.35;44.93;99470.91;3143725;28;20532;-64
2022/10/03 03:24:07;;;;;;;4.13;2.05;;;;;;;16.36;45.13;99479.66;3144401;28;20052;-63
2022/10/03 03:25:50;;;;;;;4.05;2.05;;;;;;;16.35;44.95;99470.06;3142876;28;20132;-63
2022/10/03 03:27:30;;;;;;;;;;;;;;;16.32;45.11;99472.94;3144670;28;20114;-63
2022/10/03 03:29:13;;;;;;;6.22;2.45;;;;;;;16.32;44.76;99473.75;3144466;28;19974;-63
2022/10/03 03:30:53;;;;;;;5.43;2.58;;;;;;;16.31;45.32;99460.75;3144123;28;20097;-63
2022/10/03 03:32:39;;;;;;;9.45;3.30;;;;;;;16.30;45.05;99459.09;3143470;28;20113;-63
2022/10/03 03:34:19;;;;;;;10.40;4.72;;;;;;;16.29;45.03;99463.47;3144161;28;20052;-63
2022/10/03 03:36:02;;;;;;;13.27;5.68;;;;;;;16.29;45.09;99455.59;3144172;28;20230;-63
2022/10/03 03:37:48;;;;;;;19.77;7.65;;;;;;;16.26;44.92;99460.25;3138296;28;20040;-63
2022/10/03 03:39:45;;;;;;;16.58;8.13;;;;;;;16.26;44.92;99458.47;3139239;28;20052;-63
2022/10/03 03:41:37;;;;;;;19.75;7.57;;;;;;;16.26;44.78;99463.72;3143448;28;20044;-63
2022/10/03 03:43:37;;;;;;;14.77;7.30;;;;;;;16.24;44.73;99449.88;3144285;28;20094;-64
2022/10/03 03:45:28;;;;;;;15.23;7.07;;;;;;;16.24;44.63;99451.63;3143544;28;20056;-62
2022/10/03 03:47:13;;;;;;;15.73;6.88;;;;;;;16.23;44.82;99444.72;3144001;28;20140;-62
2022/10/03 03:49:09;;;;;;;15.10;6.88;;;;;;;16.23;44.63;99449.97;3143988;28;20110;-62
2022/10/03 03:50:51;;;;;;;15.65;6.75;;;;;;;16.24;44.88;99443.75;3143779;28;20083;-63
2022/10/03 03:52:43;;;;;;;14.38;6.35;;;;;;;16.22;44.75;99449.13;3138578;28;20064;-63
2022/10/03 03:54:51;;;;;;;14.45;5.75;;;;;;;16.21;44.69;99449.22;3144295;28;20496;-63
2022/10/03 03:56:43;;;;;;;15.18;7.35;;;;;;;16.20;44.61;99442.31;3143807;28;20060;-63
2022/10/03 03:58:28;;;;;;;17.05;7.28;;;;;;;16.17;44.61;99439.91;3142975;28;20060;-62
2022/10/03 04:00:13;;;;;;;17.60;7.68;;;;;;;16.17;45.03;99450.44;3144113;28;20543;-60
2022/10/03 04:02:04;;;;;;;16.13;7.55;;;;;;;16.15;44.85;99445.31;3141596;28;20056;-59
2022/10/03 04:03:50;;;;;;;20.02;9.73;;;;;;;16.14;45.10;99448.84;3143547;28;20051;-60
2022/10/03 04:05:42;;;;;;;24.60;10.70;;;;;;;16.13;44.82;99442.78;3144194;28;20425;-60
2022/10/03 04:07:26;;;;;;;20.70;10.05;;;;;;;16.09;45.17;99443.97;3139893;28;20114;-60
2022/10/03 04:09:05;;;;;;;;;;;;;;;16.02;45.47;99450.59;3144451;28;20529;-59
2022/10/03 04:10:47;;;;;;;29.92;14.73;;;;;;;16.00;45.17;99447.25;3140983;28;20743;-59
2022/10/03 04:12:32;;;;;;;32.60;16.90;;;;;;;15.99;45.34;99450.00;3144354;28;20510;-60
2022/10/03 04:14:39;;;;;;;34.85;16.80;;;;;;;15.97;45.32;99433.50;3135820;28;20052;-60
2022/10/03 04:18:59;;;;;;;29.92;13.20;;;;;;;15.94;44.88;99426.69;3143284;28;20081;-60
2022/10/03 04:20:55;;;;;;;30.17;12.98;;;;;;;15.94;45.28;99426.69;3143416;28;20045;-60
2022/10/03 04:22:48;;;;;;;36.03;14.52;;;;;;;15.93;44.92;99428.47;3142742;28;20075;-65
2022/10/03 04:24:36;;;;;;;53.03;22.73;;;;;;;15.92;44.76;99425.97;3138454;28;20098;-64
2022/10/03 04:26:30;;;;;;;48.92;20.90;;;;;;;15.89;45.04;99423.56;3139386;28;20056;-65
2022/10/03 04:28:33;;;;;;;64.88;28.92;;;;;;;15.84;45.00;99423.06;3144087;28;20474;-65
2022/10/03 04:30:13;;;;;;;62.40;25.42;;;;;;;15.74;45.52;99408.94;3133618;28;20084;-62
2022/10/03 04:31:56;;;;;;;67.47;26.25;;;;;;;15.74;44.99;99407.16;3142289;28;20185;-62
2022/10/03 04:33:43;;;;;;;68.85;26.33;;;;;;;15.69;44.99;99412.72;3143935;28;20059;-65
2022/10/03 04:35:46;;;;;;;64.47;23.90;;;;;;;15.66;44.94;99412.91;3145724;28;20045;-61
2022/10/03 04:37:24;;;;;;;50.97;21.60;;;;;;;15.63;45.34;99413.13;3145984;28;20059;-62
2022/10/03 04:39:05;;;;;;;52.08;19.77;;;;;;;15.61;45.34;99412.41;3146235;28;20060;-71
2022/10/03 04:40:48;;;;;;;42.10;17.52;;;;;;;15.59;45.37;99409.06;3145321;28;20170;-70
2022/10/03 04:42:43;;;;;;;47.40;17.42;;;;;;;15.57;45.46;99418.81;3145515;28;20476;-68
2022/10/03 04:44:39;;;;;;;41.20;16.17;;;;;;;15.56;45.35;99427.66;3144417;28;20052;-66
2022/10/03 04:46:23;;;;;;;44.38;18.15;;;;;;;15.56;45.64;99425.03;3144629;28;20052;-67
2022/10/03 04:48:05;;;;;;;54.83;19.15;;;;;;;15.55;45.36;99427.75;3145754;28;20075;-66
2022/10/03 04:49:43;;;;;;;45.10;16.30;;;;;;;15.54;45.68;99434.78;3145720;28;20154;-69
2022/10/03 04:51:24;;;;;;;38.08;16.15;;;;;;;15.53;45.41;99438.38;3145969;28;20061;-71
2022/10/03 04:53:10;;;;;;;37.60;13.10;;;;;;;15.52;45.39;99433.22;3144878;28;20075;-68
2022/10/03 04:54:52;;;;;;;25.92;9.65;;;;;;;15.56;45.52;99437.28;3145328;28;20052;-65
2022/10/03 04:56:50;;;;;;;27.15;10.35;;;;;;;15.55;45.29;99436.47;3145545;28;20048;-68
2022/10/03 04:58:36;;;;;;;26.25;8.27;;;;;;;15.55;45.30;99431.22;3141196;28;20052;-66
2022/10/03 05:00:23;;;;;;;13.88;4.78;;;;;;;15.52;45.41;99434.06;3145353;28;20131;-65
2022/10/03 05:02:02;;;;;;;16.58;5.75;;;;;;;15.51;45.70;99423.69;3146158;28;20576;-63
2022/10/03 05:03:43;;;;;;;16.13;4.68;;;;;;;15.51;45.60;99428.94;3142183;28;20106;-68
2022/10/03 05:05:35;;;;;;;12.80;4.20;;;;;;;15.50;45.96;99430.72;3140485;28;20051;-64
2022/10/03 05:07:16;;;;;;;13.02;3.58;;;;;;;15.50;45.82;99435.09;3144296;28;20044;-65
2022/10/03 05:08:57;;;;;;;33.72;18.75;;;;;;;15.49;46.11;99429.03;3140011;28;20457;-73
2022/10/03 05:10:55;;;;;;;58.22;28.85;;;;;;;15.46;46.12;99429.25;3144802;28;20041;-72
2022/10/03 05:12:34;;;;;;;63.90;33.13;;;;;;;15.49;45.88;99431.66;3143120;28;20052;-71
2022/10/03 05:14:12;;;;;;;17.67;7.63;;;;;;;15.50;45.89;99427.22;3141853;28;20041;-66
2022/10/03 05:15:56;;;;;;;15.95;4.38;;;;;;;15.50;46.14;99435.09;3143925;28;20109;-66
2022/10/03 05:17:37;;;;;;;7.75;3.20;;;;;;;15.52;45.75;99428.81;3139297;28;20559;-67
2022/10/03 05:19:37;;;;;;;12.38;2.90;;;;;;;15.53;45.69;99434.88;3138703;28;20128;-66
2022/10/03 05:21:15;;;;;;;8.52;3.47;;;;;;;15.54;45.80;99437.41;3144281;28;20048;-65
2022/10/03 05:22:57;;;;;;;10.98;4.25;;;;;;;15.54;45.93;99434.78;3140469;28;20426;-65
2022/10/03 05:24:38;;;;;;;14.32;4.13;;;;;;;15.59;45.73;99437.09;3141913;28;20045;-66
2022/10/03 05:26:22;;;;;;;12.18;3.80;;;;;;;15.61;45.78;99438.66;3141903;28;20048;-69
2022/10/03 05:28:11;;;;;;;11.35;3.95;;;;;;;15.64;46.02;99430.56;3138555;28;20080;-63
2022/10/03 05:29:52;;;;;;;7.68;2.80;;;;;;;15.66;45.71;99428.66;3139779;28;20109;-64
2022/10/03 05:31:35;;;;;;;10.10;3.33;;;;;;;15.69;45.62;99432.88;3134303;28;20131;-64
2022/10/03 05:33:15;;;;;;;10.27;3.28;;;;;;;15.73;45.54;99438.75;3130438;28;20053;-62
2022/10/03 05:35:12;;;;;;;11.43;3.30;;;;;;;15.73;45.74;99436.13;3135397;28;20297;-63
2022/10/03 05:37:03;;;;;;;7.97;3.15;;;;;;;15.69;45.82;99438.97;3132074;28;20084;-64
2022/10/03 05:39:05;;;;;;;9.80;2.58;;;;;;;15.66;45.99;99439.16;3132390;28;20076;-61
2022/10/03 05:40:40;;;;;;;11.00;2.67;;;;;;;15.71;45.91;99436.25;3128464;28;20103;-63
2022/10/03 05:42:34;;;;;;;12.68;2.28;;;;;;;15.71;46.20;99435.41;3131765;28;20500;-63
2022/10/03 05:44:15;;;;;;;9.00;1.98;;;;;;;15.74;45.84;99446.53;3131824;28;20274;-63
2022/10/03 05:45:54;;;;;;;4.90;1.85;;;;;;;15.68;45.95;99425.97;3133152;28;20252;-63
2022/10/03 05:47:45;;;;;;;10.57;2.60;;;;;;;15.77;46.14;99437.59;3132266;28;20074;-62
2022/10/03 05:49:50;;;;;;;5.68;1.58;;;;;;;15.83;46.26;99439.78;3132889;28;20056;-64
2022/10/03 05:51:46;;;;;;;5.03;1.50;;;;;;;15.85;46.04;99432.59;3130199;28;20433;-64
2022/10/03 05:53:48;;;;;;;5.93;1.45;;;;;;;15.88;46.03;99438.50;3135031;28;20074;-62
2022/10/03 05:55:44;;;;;;;7.85;1.58;;;;;;;15.89;45.88;99439.31;3133092;28;20102;-60
2022/10/03 05:57:45;;;;;;;9.50;1.27;;;;;;;15.84;45.90;99439.66;3134248;28;20045;-64
2022/10/03 05:59:43;;;;;;;6.88;1.40;;;;;;;15.85;45.87;99428.22;3129658;28;20604;-64
2022/10/03 06:01:43;;;;;;;4.68;1.50;;;;;;;15.96;45.96;99430.03;3130229;28;20398;-64
2022/10/03 06:03:44;;;;;;;7.50;1.63;;;;;;;16.03;45.93;99433.91;3134549;28;20356;-60
2022/10/03 06:05:37;;;;;;;6.35;1.20;;;;;;;16.09;45.60;99424.72;3132024;28;20064;-63
2022/10/03 06:07:22;;;;;;;7.32;2.33;;;;;;;16.17;45.68;99426.78;3133080;28;20048;-60
2022/10/03 06:09:18;;;;;;;12.43;1.52;;;;;;;16.21;45.62;99428.22;3132693;28;20060;-59
2022/10/03 06:10:58;;;;;;;8.60;1.70;;;;;;;16.24;45.52;99433.25;3133880;28;20094;-59
2022/10/03 06:12:39;;;;;;;10.27;2.08;;;;;;;16.29;45.21;99431.13;3134358;28;20052;-61
2022/10/03 06:14:32;;;;;;;6.05;1.70;;;;;;;16.34;45.60;99426.38;3133676;28;20052;-60
2022/10/03 06:16:22;;;;;;;6.13;1.70;;;;;;;16.43;45.54;99425.66;3131188;28;20155;-58
2022/10/03 06:18:01;;;;;;;7.18;1.90;;;;;;;16.51;45.34;99428.56;3129951;28;20488;-59
2022/10/03 06:19:47;;;;;;;5.85;2.20;;;;;;;16.56;45.39;99426.44;3132885;28;20140;-60
2022/10/03 06:21:45;;;;;;;4.72;1.77;;;;;;;16.57;45.36;99420.22;3134754;28;20463;-62
2022/10/03 06:23:41;;;;;;;21.65;10.70;;;;;;;16.61;45.02;99418.19;3135377;28;20122;-66
2022/10/03 06:25:43;;;;;;;83.80;48.97;;;;;;;16.64;45.10;99423.19;3130342;28;20052;-66
2022/10/03 06:27:58;;;;;;;13.75;7.75;;;;;;;16.71;45.02;99420.94;3129653;28;20055;-59
2022/10/03 06:30:10;;;;;;;14.30;3.05;;;;;;;16.79;45.18;99418.59;3131145;28;20048;-59
2022/10/03 06:32:19;;;;;;;7.43;2.45;;;;;;;16.89;44.96;99419.56;3126664;28;20060;-59
2022/10/03 06:34:33;;;;;;;5.75;1.92;;;;;;;16.98;44.55;99426.75;3122490;28;20118;-60
2022/10/03 06:36:36;;;;;;;7.07;2.17;;;;;;;17.02;44.43;99424.72;3117887;28;20126;-59
2022/10/03 06:39:20;;;;;;;10.93;2.13;;;;;;;17.11;44.38;99433.69;3128704;28;20348;-59
2022/10/03 06:41:33;;;;;;;6.03;2.17;;;;;;;17.23;44.32;99422.19;3128489;28;20052;-59
2022/10/03 06:43:38;;;;;;;6.03;2.35;;;;;;;17.32;44.18;99424.09;3130742;28;20061;-59
2022/10/03 06:45:44;;;;;;;13.02;2.08;;;;;;;17.41;43.99;99422.53;3125415;28;20073;-59
2022/10/03 06:47:37;;;;;;;5.78;2.35;;;;;;;17.58;43.94;99421.19;3134489;28;20091;-59
2022/10/03 06:49:48;;;;;;;6.10;2.10;;;;;;;17.85;43.65;99416.34;3134244;28;20193;-60
2022/10/03 06:51:59;;;;;;;9.13;3.63;;;;;;;18.16;43.35;99411.19;3129390;28;20144;-59
2022/10/03 06:53:47;;;;;;;7.32;2.20;;;;;;;18.42;42.96;99416.91;3125765;28;20060;-60
2022/10/03 06:55:41;;;;;;;6.10;2.28;;;;;;;18.70;42.62;99406.69;3134175;28;20366;-58
2022/10/03 06:57:37;;;;;;;7.68;2.42;;;;;;;19.05;41.75;99406.34;3132898;28;20093;-58
2022/10/03 06:59:33;;;;;;;5.38;2.30;;;;;;;19.40;41.51;99411.16;3127048;28;20072;-59
2022/10/03 07:01:28;;;;;;;9.13;2.70;;;;;;;19.81;41.20;99411.13;3129804;28;20355;-58
2022/10/03 07:03:46;;;;;;;7.50;3.00;;;;;;;20.35;39.94;99401.78;3131968;28;20432;-59
2022/10/03 07:06:03;;;;;;;8.57;3.13;;;;;;;20.88;38.70;99407.41;3131860;28;20059;-62
2022/10/03 07:08:06;;;;;;;10.93;3.10;;;;;;;21.45;38.37;99409.13;3126307;28;20517;-59
2022/10/03 07:10:18;;;;;;;7.72;3.17;;;;;;;22.11;37.65;99405.31;3132022;28;20051;-59
2022/10/03 07:12:38;;;;;;;10.05;3.38;;;;;;;22.70;35.87;99406.44;3126781;28;20048;-60
2022/10/03 07:14:54;;;;;;;11.30;3.38;;;;;;;23.38;35.48;99398.47;3131634;28;20583;-59
2022/10/03 07:17:06;;;;;;;8.00;2.88;;;;;;;23.93;34.43;99409.56;3131823;28;20052;-59
2022/10/03 07:19:21;;;;;;;7.57;3.08;;;;;;;24.29;33.53;99405.59;3131210;28;20055;-60
2022/10/03 07:21:21;;;;;;;8.20;3.15;;;;;;;24.41;32.85;99400.78;3133011;28;20052;-61
2022/10/03 07:23:34;;;;;;;7.00;2.97;;;;;;;24.59;33.03;99389.97;3129065;28;20183;-59
2022/10/03 07:25:45;;;;;;;17.17;3.40;;;;;;;25.01;32.27;99398.69;3123445;28;20064;-58
2022/10/03 07:27:39;;;;;;;4.95;2.63;;;;;;;25.47;31.89;99388.16;3087125;28;20054;-58
2022/10/03 07:29:40;;;;;;;9.07;3.28;;;;;;;26.01;31.47;99386.34;3130416;28;20048;-58
2022/10/03 07:31:25;;;;;;;5.22;2.50;;;;;;;26.46;30.70;99384.59;3128135;28;20045;-59
2022/10/03 07:33:39;;;;;;;8.07;2.97;;;;;;;26.81;29.82;99384.94;3131135;28;20080;-59
2022/10/03 07:38:56;;;;;;;10.50;2.97;;;;;;;27.17;29.55;99392.22;3130528;28;20479;-59
2022/10/03 07:40:13;;;;;;;9.80;2.60;;;;;;;27.54;28.36;99387.72;3132532;28;20052;-60
2022/10/03 07:42:08;;;;;;;6.97;2.10;;;;;;;27.26;27.84;99387.59;3125792;28;20057;-59
2022/10/03 07:44:00;;;;;;;5.40;2.20;;;;;;;26.81;28.23;99376.91;3131766;28;20131;-59
2022/10/03 07:45:38;;;;;;;7.25;1.92;;;;;;;26.67;28.87;99378.56;3128849;28;20114;-59
2022/10/03 07:47:51;;;;;;;8.00;2.53;;;;;;;26.56;29.28;99381.69;3132683;28;20052;-60
2022/10/03 07:49:45;;;;;;;7.15;2.33;;;;;;;26.32;29.57;99377.38;3132778;28;20045;-60
2022/10/03 07:51:30;;;;;;;7.03;2.58;;;;;;;26.07;29.42;99385.63;3132138;28;20060;-61
2022/10/03 07:53:18;;;;;;;23.42;2.67;;;;;;;25.82;29.95;99381.47;3130063;28;20139;-61
2022/10/03 07:55:16;;;;;;;13.70;3.47;;;;;;;25.54;30.14;99381.97;3136545;28;20056;-60
2022/10/03 07:57:03;;;;;;;16.80;2.60;;;;;;;25.29;30.36;99383.94;3129931;28;20556;-60
2022/10/03 07:59:03;;;;;;;6.70;2.65;;;;;;;25.10;30.79;99382.47;3131564;28;20495;-60
2022/10/03 08:00:51;;;;;;;10.45;2.83;;;;;;;24.92;31.03;99389.88;3130850;28;20048;-60
2022/10/03 08:02:43;;;;;;;7.97;2.33;;;;;;;25.08;30.88;99389.84;3133023;28;20048;-59
2022/10/03 08:04:35;;;;;;;8.05;2.80;;;;;;;25.23;30.79;99391.78;3127583;28;20626;-60
2022/10/03 08:06:22;;;;;;;7.70;2.58;;;;;;;25.30;31.11;99398.91;3132017;28;20044;-59
2022/10/03 08:08:18;;;;;;;8.30;2.92;;;;;;;25.34;30.82;99392.22;3134615;28;20160;-60
2022/10/03 08:10:20;;;;;;;6.32;2.17;;;;;;;25.22;30.58;99395.47;3134612;28;20060;-60
2022/10/03 08:12:13;;;;;;;5.88;2.00;;;;;;;24.94;31.29;99388.72;3134897;28;20489;-59
2022/10/03 08:14:01;;;;;;;7.50;2.22;;;;;;;24.71;30.99;99388.59;3137451;28;20346;-60
2022/10/03 08:15:52;;;;;;;4.97;2.20;;;;;;;24.48;31.75;99396.47;3132556;28;20052;-61
2022/10/03 08:18:00;;;;;;;5.32;1.98;;;;;;;24.32;31.63;99395.63;3134847;28;20045;-60
2022/10/03 08:19:52;;;;;;;7.30;2.40;;;;;;;24.12;32.15;99385.31;3130577;28;20159;-61
2022/10/03 08:21:31;;;;;;;5.70;2.38;;;;;;;23.92;32.34;99403.44;3132868;28;20219;-61
2022/10/03 08:23:25;;;;;;;5.93;2.50;;;;;;;23.78;32.74;99402.28;3130461;28;20053;-60
2022/10/03 08:25:17;;;;;;;6.90;2.10;;;;;;;23.57;32.81;99399.19;3130850;28;20052;-60
2022/10/03 08:27:20;;;;;;;7.20;2.42;;;;;;;23.45;32.89;99405.78;3130885;28;20053;-60
2022/10/03 08:29:28;;;;;;;5.80;2.60;;;;;;;23.37;33.34;99406.63;3135870;28;20052;-60
2022/10/03 08:31:24;;;;;;;7.95;2.15;;;;;;;23.31;33.10;99400.13;3118638;28;20052;-61
2022/10/03 08:33:17;;;;;;;6.93;2.40;;;;;;;23.17;33.31;99395.41;3132608;28;20274;-61
2022/10/03 08:35:22;;;;;;;4.15;2.15;;;;;;;23.03;33.55;99398.66;3136473;28;20082;-58
2022/10/03 08:37:35;;;;;;;4.75;2.03;;;;;;;22.96;34.02;99395.00;3131241;28;20568;-60
2022/10/03 08:39:13;;;;;;;4.63;2.22;;;;;;;22.89;33.98;99395.59;3121075;28;20822;-60
2022/10/03 08:41:38;;;;;;;7.55;2.00;;;;;;;22.84;34.02;99392.56;3128570;28;20837;-60
2022/10/03 08:43:41;;;;;;;7.10;1.92;;;;;;;22.73;33.90;99399.97;3129591;28;20136;-59
2022/10/03 08:45:46;;;;;;;7.97;3.05;;;;;;;22.65;34.50;99393.63;3132974;28;20140;-60
2022/10/03 08:47:38;;;;;;;14.15;2.63;;;;;;;22.64;34.37;99393.78;3131894;28;20048;-60
2022/10/03 08:49:57;;;;;;;11.07;2.78;;;;;;;22.52;34.34;99403.81;3139232;28;20048;-59
2022/10/03 08:52:09;;;;;;;9.73;2.83;;;;;;;22.35;34.72;99405.53;3133242;28;20125;-60
2022/10/03 08:54:01;;;;;;;15.93;2.50;;;;;;;22.21;34.89;99400.75;3132195;28;20860;-61
2022/10/03 08:55:45;;;;;;;6.57;1.90;;;;;;;22.17;34.81;99405.56;3131179;28;20584;-61
2022/10/03 08:57:59;;;;;;;9.32;2.42;;;;;;;22.13;35.61;99406.81;3134090;28;20044;-61